South Pass, Louisiana
Current Conditions -  °F | °C
As of 12:51 PM on Monday 22 Dec 2014 (Local Time) from KBVE Reporting Station
Scattered Clouds Scattered Clouds  
Wind Chill: 22°   Ceiling: Unl
Heat Index: 22°   Visibility: 10mi
Dew Point: 19°   Wind: 14mph
Humidity: 84%   Direction: 200°SSW
Pressure: 29.78"   Gusts: NA
Location:  29.2037°N, 89.3875°W
Report Text: KBVE 221851Z AUTO 20012KT 10SM SCT045 22/19 A2978 RMK AO2 SLP083 T02220194
Loading
Personal Weather Stations






























Interactive Weather Map New forecast layout! Learn more

10-Day Weather Forecast

Advertisements
Track Severe Weather on mobile